Pepeekeo, Hawaii
Current Conditions -  °F | °C
As of 7:13 PM on Monday 22 Dec 2014 (Local Time) from PHTO Reporting Station
Broken Clouds Broken Clouds  
Wind Chill: 75°   Ceiling: 4000
Heat Index: 75°   Visibility: 10mi
Dew Point: 67°   Wind: 3mph
Humidity: 76%   Direction: 300°WNW
Pressure: 29.97"   Gusts: NA
Location:  19.84°N, 155.09°W
Report Text: PHTO 230513Z 30003KT 10SM SCT024 SCT032 BKN040 24/19 A2997 RMK AO2 T02390194 $
Loading
Personal Weather Stations






























Interactive Weather Map New forecast layout! Learn more

10-Day Weather Forecast

Advertisements
Track Severe Weather on mobile